createdAt,value
2019-03-09T00:00:11.705Z,93642.72
2019-03-09T00:02:39.664Z,93647.05
2019-03-09T00:05:16.253Z,93653.97
2019-03-09T00:07:44.210Z,93654.89
2019-03-09T00:10:12.491Z,93653.30
2019-03-09T00:12:40.780Z,93657.61
2019-03-09T00:15:09.169Z,93652.16
2019-03-09T00:17:37.805Z,93653.45
2019-03-09T00:20:05.415Z,93653.88
2019-03-09T00:22:33.684Z,93647.14
2019-03-09T00:25:21.406Z,93648.03
2019-03-09T00:28:09.304Z,93650.16
2019-03-09T00:30:56.286Z,93648.52
2019-03-09T00:33:25.064Z,93652.30
2019-03-09T00:35:53.522Z,93654.00
2019-03-09T00:38:21.734Z,93656.12
2019-03-09T00:40:50.465Z,93654.43
2019-03-09T00:43:18.699Z,93662.48
2019-03-09T00:45:47.440Z,93651.06
2019-03-09T00:48:16.119Z,93658.66
2019-03-09T00:50:44.135Z,93643.05
2019-03-09T00:53:12.371Z,93637.55
2019-03-09T00:55:40.611Z,93638.42
2019-03-09T00:58:09.336Z,93634.16
2019-03-09T01:00:37.621Z,93629.05
2019-03-09T01:03:06.290Z,93630.70
2019-03-09T01:05:34.824Z,93619.22
2019-03-09T01:08:02.755Z,93622.56
2019-03-09T01:10:31.010Z,93627.60
2019-03-09T01:12:58.893Z,93619.17
2019-03-09T01:15:27.178Z,93611.97
2019-03-09T01:17:55.151Z,93607.71
2019-03-09T01:20:23.076Z,93607.73
2019-03-09T01:22:51.307Z,93598.78
2019-03-09T01:25:20.030Z,93594.48
2019-03-09T01:27:48.797Z,93583.29
2019-03-09T01:30:17.585Z,93569.39
2019-03-09T01:32:45.874Z,93573.91
2019-03-09T01:35:54.457Z,93572.56
2019-03-09T01:38:23.048Z,93569.84
2019-03-09T01:41:03.500Z,93567.13
2019-03-09T01:43:31.395Z,93553.56
2019-03-09T01:45:59.350Z,93561.37
2019-03-09T01:48:27.641Z,93557.52
2019-03-09T01:50:55.606Z,93552.82
2019-03-09T01:53:24.216Z,93553.61
2019-03-09T01:55:52.435Z,93544.23
2019-03-09T01:58:21.130Z,93543.02
2019-03-09T02:00:49.371Z,93543.45
2019-03-09T02:03:17.849Z,93541.48
2019-03-09T02:05:46.399Z,93546.30
2019-03-09T02:08:14.308Z,93539.65
2019-03-09T02:10:42.356Z,93535.09
2019-03-09T02:13:10.570Z,93524.16
2019-03-09T02:15:38.950Z,93533.98
2019-03-09T02:18:06.936Z,93533.23
2019-03-09T02:20:34.819Z,93537.84
2019-03-09T02:23:03.192Z,93533.68
2019-03-09T02:25:31.464Z,93532.72
2019-03-09T02:27:59.685Z,93535.22
2019-03-09T02:30:28.020Z,93525.06
2019-03-09T02:32:56.209Z,93524.72
2019-03-09T02:35:24.739Z,93517.54
2019-03-09T02:41:09.776Z,93520.34
2019-03-09T02:43:37.983Z,93516.63
2019-03-09T02:46:06.579Z,93509.41
2019-03-09T02:48:34.507Z,93507.70
2019-03-09T02:51:03.025Z,93506.78
2019-03-09T02:53:31.282Z,93500.00
2019-03-09T02:55:59.806Z,93502.62
2019-03-09T02:58:28.455Z,93494.61
2019-03-09T03:01:16.196Z,93492.08
2019-03-09T03:03:44.359Z,93486.13
2019-03-09T03:06:12.670Z,93481.48
2019-03-09T03:08:40.506Z,93478.42
2019-03-09T03:11:09.055Z,93469.48
2019-03-09T03:13:36.941Z,93467.78
2019-03-09T03:16:04.755Z,93467.34
2019-03-09T03:18:33.429Z,93472.77
2019-03-09T03:21:01.699Z,93463.09
2019-03-09T03:23:29.990Z,93454.52
2019-03-09T03:25:58.589Z,93458.17
2019-03-09T03:28:27.285Z,93455.45
2019-03-09T03:30:55.900Z,93455.25
2019-03-09T03:33:23.906Z,93463.33
2019-03-09T03:35:52.328Z,93458.81
2019-03-09T03:38:20.202Z,93465.17
2019-03-09T03:40:48.820Z,93453.48
2019-03-09T03:43:16.831Z,93446.06
2019-03-09T03:45:44.740Z,93470.03
2019-03-09T03:48:13.420Z,93461.84
2019-03-09T03:50:41.723Z,93457.17
2019-03-09T03:53:10.252Z,93455.23
2019-03-09T03:55:38.601Z,93461.23
2019-03-09T03:58:07.874Z,93449.76
2019-03-09T04:00:36.515Z,93443.14
2019-03-09T04:06:06.214Z,93447.81
2019-03-09T04:08:34.735Z,93427.84
2019-03-09T04:14:23.973Z,93431.61
2019-03-09T04:16:52.265Z,93436.36
2019-03-09T04:19:20.234Z,93410.47
2019-03-09T04:21:48.798Z,93416.40
2019-03-09T04:24:18.155Z,93398.70
2019-03-09T04:26:46.796Z,93404.41
2019-03-09T04:29:15.145Z,93418.94
2019-03-09T04:31:43.225Z,93421.40
2019-03-09T04:34:11.544Z,93422.25
2019-03-09T04:36:39.862Z,93434.52
2019-03-09T04:39:08.527Z,93424.48
2019-03-09T04:41:37.135Z,93422.91
2019-03-09T04:44:05.849Z,93414.51
2019-03-09T04:46:34.191Z,93432.33
2019-03-09T04:49:02.816Z,93418.75
2019-03-09T04:51:30.741Z,93419.19
2019-03-09T04:53:59.097Z,93431.92
2019-03-09T04:56:27.751Z,93410.69
2019-03-09T05:01:36.047Z,93409.47
2019-03-09T05:04:52.274Z,93413.23
2019-03-09T05:07:41.317Z,93413.30
2019-03-09T05:10:20.961Z,93416.20
2019-03-09T05:12:51.124Z,93413.22
2019-03-09T05:15:19.093Z,93433.21
2019-03-09T05:17:47.857Z,93422.00
2019-03-09T05:20:16.559Z,93422.50
2019-03-09T05:22:45.235Z,93426.19
2019-03-09T05:25:13.069Z,93429.11
2019-03-09T05:27:41.311Z,93438.09
2019-03-09T05:33:12.309Z,93439.31
2019-03-09T05:35:40.929Z,93435.11
2019-03-09T05:38:08.868Z,93444.90
2019-03-09T05:40:37.285Z,93445.04
2019-03-09T05:43:05.571Z,93445.55
2019-03-09T05:45:34.401Z,93451.84
2019-03-09T05:48:03.147Z,93461.96
2019-03-09T05:50:31.211Z,93476.36
2019-03-09T05:53:19.432Z,93475.45
2019-03-09T05:55:48.031Z,93480.75
2019-03-09T05:58:15.906Z,93476.95
2019-03-09T06:00:44.636Z,93495.08
2019-03-09T06:03:13.489Z,93489.09
2019-03-09T06:05:46.009Z,93492.23
2019-03-09T06:08:14.976Z,93490.61
2019-03-09T06:10:43.250Z,93506.23
2019-03-09T06:13:31.484Z,93510.61
2019-03-09T06:15:59.458Z,93509.26
2019-03-09T06:18:28.115Z,93507.58
2019-03-09T06:20:56.973Z,93517.09
2019-03-09T06:23:25.328Z,93525.75
2019-03-09T06:25:53.191Z,93519.89
2019-03-09T06:28:21.431Z,93517.05
2019-03-09T06:30:50.104Z,93518.33
2019-03-09T06:33:37.475Z,93518.28
2019-03-09T06:36:44.095Z,93519.88
2019-03-09T06:39:33.306Z,93530.48
2019-03-09T06:42:16.422Z,93533.86
2019-03-09T06:44:45.123Z,93519.39
2019-03-09T06:47:13.649Z,93513.84
2019-03-09T06:49:42.276Z,93518.48
2019-03-09T06:52:10.274Z,93516.73
2019-03-09T06:54:39.059Z,93521.47
2019-03-09T06:57:13.926Z,93531.59
2019-03-09T06:59:43.134Z,93538.30
2019-03-09T07:02:11.500Z,93549.69
2019-03-09T07:04:39.590Z,93551.79
2019-03-09T07:07:07.885Z,93542.31
2019-03-09T07:09:35.726Z,93549.84
2019-03-09T07:12:04.337Z,93532.66
2019-03-09T07:15:11.044Z,93535.21
2019-03-09T07:17:38.927Z,93533.39
2019-03-09T07:20:12.727Z,93546.88
2019-03-09T07:22:45.738Z,93533.19
2019-03-09T07:25:14.329Z,93552.10
2019-03-09T07:27:42.819Z,93554.20
2019-03-09T07:30:30.219Z,93557.72
2019-03-09T07:32:59.141Z,93576.17
2019-03-09T07:35:27.899Z,93576.37
2019-03-09T07:37:56.126Z,93577.88
2019-03-09T07:40:24.890Z,93586.73
2019-03-09T07:42:52.449Z,93590.57
2019-03-09T07:45:20.742Z,93583.00
2019-03-09T07:47:49.029Z,93580.84
2019-03-09T07:50:17.244Z,93585.34
2019-03-09T07:52:45.785Z,93583.88
2019-03-09T07:55:13.926Z,93592.27
2019-03-09T07:57:42.657Z,93583.05
2019-03-09T08:00:13.050Z,93584.48
2019-03-09T08:02:41.080Z,93589.88
2019-03-09T08:05:49.331Z,93579.62
2019-03-09T08:08:18.471Z,93586.31
2019-03-09T08:10:46.948Z,93579.12
2019-03-09T08:13:16.085Z,93571.48
2019-03-09T08:15:44.027Z,93577.56
2019-03-09T08:18:12.996Z,93580.17
2019-03-09T08:20:41.730Z,93577.00
2019-03-09T08:23:10.427Z,93576.39
2019-03-09T08:25:38.979Z,93568.98
2019-03-09T08:28:07.382Z,93576.73
2019-03-09T08:30:36.007Z,93573.82
2019-03-09T08:33:04.731Z,93563.41
2019-03-09T08:35:33.391Z,93569.52
2019-03-09T08:38:01.324Z,93573.42
2019-03-09T08:40:29.207Z,93571.32
2019-03-09T08:43:37.482Z,93559.91
2019-03-09T08:46:05.507Z,93555.13
2019-03-09T08:48:34.267Z,93546.63
2019-03-09T08:51:02.861Z,93544.20
2019-03-09T08:53:31.670Z,93540.53
2019-03-09T08:59:01.455Z,93553.31
2019-03-09T09:01:30.100Z,93543.89
2019-03-09T09:03:58.898Z,93542.78
2019-03-09T09:06:27.693Z,93542.28
2019-03-09T09:08:56.371Z,93548.95
2019-03-09T09:11:24.773Z,93554.77
2019-03-09T09:13:53.107Z,93550.75
2019-03-09T09:16:22.230Z,93557.00
2019-03-09T09:18:50.561Z,93550.92
2019-03-09T09:21:18.896Z,93571.03
2019-03-09T09:23:47.136Z,93592.23
2019-03-09T09:26:15.439Z,93579.92
2019-03-09T09:28:43.748Z,93579.31
2019-03-09T09:31:12.085Z,93580.27
2019-03-09T09:33:40.817Z,93589.39
2019-03-09T09:36:09.539Z,93598.73
2019-03-09T09:38:38.270Z,93602.28
2019-03-09T09:41:06.720Z,93613.13
2019-03-09T09:43:35.346Z,93600.91
2019-03-09T09:46:03.643Z,93605.91
2019-03-09T09:48:32.320Z,93608.16
2019-03-09T09:51:00.333Z,93601.52
2019-03-09T09:53:28.502Z,93607.41
2019-03-09T09:55:56.661Z,93591.58
2019-03-09T09:58:25.156Z,93596.12
2019-03-09T10:00:53.632Z,93596.16
2019-03-09T10:03:22.315Z,93596.70
2019-03-09T10:05:50.678Z,93606.30
2019-03-09T10:08:19.223Z,93603.01
2019-03-09T10:10:47.746Z,93601.83
2019-03-09T10:13:16.474Z,93605.39
2019-03-09T10:15:44.852Z,93599.96
2019-03-09T10:18:13.015Z,93599.13
2019-03-09T10:20:41.631Z,93592.69
2019-03-09T10:23:09.778Z,93594.00
2019-03-09T10:25:38.177Z,93592.61
2019-03-09T10:28:06.169Z,93606.15
2019-03-09T10:30:34.085Z,93597.30
2019-03-09T10:33:02.583Z,93593.70
2019-03-09T10:35:31.221Z,93589.20
2019-03-09T10:37:59.814Z,93596.05
2019-03-09T10:40:28.142Z,93593.52
2019-03-09T10:42:56.350Z,93592.40
2019-03-09T10:45:25.101Z,93597.76
2019-03-09T10:47:53.557Z,93596.63
2019-03-09T10:50:22.332Z,93600.41
2019-03-09T10:52:51.225Z,93617.85
2019-03-09T10:55:19.928Z,93602.45
2019-03-09T10:57:48.222Z,93597.39
2019-03-09T11:00:18.702Z,93595.28
2019-03-09T11:02:46.538Z,93605.17
2019-03-09T11:08:36.192Z,93585.73
2019-03-09T11:11:05.083Z,93583.52
2019-03-09T11:13:33.693Z,93581.92
2019-03-09T11:16:01.850Z,93576.28
2019-03-09T11:18:30.225Z,93577.52
2019-03-09T11:20:58.858Z,93587.00
2019-03-09T11:23:27.531Z,93580.42
2019-03-09T11:25:55.907Z,93562.19
2019-03-09T11:28:24.530Z,93562.66
2019-03-09T11:31:34.214Z,93568.00
2019-03-09T11:34:02.146Z,93564.88
2019-03-09T11:36:30.074Z,93559.27
2019-03-09T11:38:58.415Z,93563.72
2019-03-09T11:41:26.977Z,93562.21
2019-03-09T11:43:55.415Z,93560.35
2019-03-09T11:46:24.014Z,93563.36
2019-03-09T11:48:51.958Z,93565.44
2019-03-09T11:51:20.386Z,93556.95
2019-03-09T11:53:48.598Z,93548.62
2019-03-09T11:56:17.226Z,93546.17
2019-03-09T11:58:45.041Z,93541.39
2019-03-09T12:01:13.694Z,93536.85
2019-03-09T12:03:41.617Z,93535.35
2019-03-09T12:06:09.664Z,93524.17
2019-03-09T12:08:37.559Z,93527.39
2019-03-09T12:11:06.198Z,93522.64
2019-03-09T12:13:35.040Z,93521.32
2019-03-09T12:16:03.710Z,93517.40
2019-03-09T12:18:31.651Z,93534.73
2019-03-09T12:20:59.548Z,93515.23
2019-03-09T12:23:27.778Z,93524.00
2019-03-09T12:25:56.317Z,93528.53
2019-03-09T12:28:24.629Z,93533.66
2019-03-09T12:30:52.892Z,93542.56
2019-03-09T12:33:21.529Z,93539.77
2019-03-09T12:35:57.427Z,93562.05
2019-03-09T12:38:26.259Z,93552.17
2019-03-09T12:40:55.118Z,93565.66
2019-03-09T12:43:23.908Z,93572.35
2019-03-09T12:45:52.788Z,93558.92
2019-03-09T12:48:21.196Z,93568.90
2019-03-09T12:50:49.141Z,93581.53
2019-03-09T12:53:17.541Z,93575.34
2019-03-09T12:55:45.834Z,93595.67
2019-03-09T12:58:13.715Z,93585.14
2019-03-09T13:00:41.962Z,93574.90
2019-03-09T13:03:10.817Z,93584.18
2019-03-09T13:05:39.622Z,93589.34
2019-03-09T13:08:07.259Z,93586.59
2019-03-09T13:10:36.037Z,93602.89
2019-03-09T13:13:04.424Z,93596.87
2019-03-09T13:15:32.657Z,93588.80
2019-03-09T13:18:00.595Z,93582.95
2019-03-09T13:20:29.301Z,93586.93
2019-03-09T13:22:57.609Z,93574.92
2019-03-09T13:25:26.887Z,93590.38
2019-03-09T13:27:54.950Z,93597.56
2019-03-09T13:30:23.342Z,93594.37
2019-03-09T13:32:52.098Z,93608.41
2019-03-09T13:35:20.498Z,93613.56
2019-03-09T13:37:48.027Z,93597.73
2019-03-09T13:40:16.932Z,93592.80
2019-03-09T13:42:45.257Z,93586.56
2019-03-09T13:45:13.949Z,93571.61
2019-03-09T13:47:42.321Z,93562.72
2019-03-09T13:50:11.177Z,93553.70
2019-03-09T13:52:39.579Z,93527.92
2019-03-09T13:55:07.984Z,93542.84
2019-03-09T13:57:35.959Z,93547.25
2019-03-09T14:00:44.225Z,93542.23
2019-03-09T14:03:12.958Z,93532.00
2019-03-09T14:05:40.808Z,93522.76
2019-03-09T14:08:09.156Z,93515.45
2019-03-09T14:10:37.066Z,93533.47
2019-03-09T14:13:04.968Z,93536.38
2019-03-09T14:15:33.738Z,93521.03
2019-03-09T14:18:02.092Z,93511.00
2019-03-09T14:20:30.778Z,93515.39
2019-03-09T14:22:59.583Z,93511.94
2019-03-09T14:25:27.516Z,93526.70
2019-03-09T14:27:56.383Z,93505.59
2019-03-09T14:30:24.880Z,93489.27
2019-03-09T14:32:53.103Z,93480.88
2019-03-09T14:35:21.432Z,93474.70
2019-03-09T14:37:49.012Z,93483.55
2019-03-09T14:40:16.982Z,93492.39
2019-03-09T14:42:45.254Z,93495.48
2019-03-09T14:45:14.697Z,93503.25
2019-03-09T14:47:42.719Z,93505.48
2019-03-09T14:53:12.569Z,93504.91
2019-03-09T14:55:41.053Z,93499.89
2019-03-09T14:58:09.320Z,93497.77
2019-03-09T15:00:38.222Z,93476.03
2019-03-09T15:03:06.210Z,93495.09
2019-03-09T15:05:34.824Z,93509.79
2019-03-09T15:08:03.483Z,93521.64
2019-03-09T15:10:31.920Z,93530.33
2019-03-09T15:13:00.254Z,93519.59
2019-03-09T15:15:27.790Z,93520.89
2019-03-09T15:17:55.948Z,93522.23
2019-03-09T15:20:23.869Z,93508.57
2019-03-09T15:22:52.140Z,93516.14
2019-03-09T15:25:20.727Z,93520.06
2019-03-09T15:27:49.320Z,93526.83
2019-03-09T15:30:17.827Z,93509.29
2019-03-09T15:32:46.552Z,93505.40
2019-03-09T15:35:15.087Z,93483.34
2019-03-09T15:37:43.652Z,93491.66
2019-03-09T15:40:12.199Z,93485.66
2019-03-09T15:42:41.034Z,93507.54
2019-03-09T15:45:10.542Z,93492.58
2019-03-09T15:47:39.207Z,93491.74
2019-03-09T15:50:08.482Z,93504.54
2019-03-09T15:52:37.052Z,93511.55
2019-03-09T15:55:04.661Z,93504.36
2019-03-09T15:57:32.636Z,93512.92
2019-03-09T16:00:01.488Z,93511.79
2019-03-09T16:02:30.299Z,93510.84
2019-03-09T16:04:59.295Z,93510.01
2019-03-09T16:07:27.732Z,93512.92
2019-03-09T16:09:56.457Z,93516.90
2019-03-09T16:12:24.863Z,93523.81
2019-03-09T16:14:53.912Z,93515.20
2019-03-09T16:17:22.273Z,93533.89
2019-03-09T16:19:50.720Z,93524.80
2019-03-09T16:22:19.297Z,93526.16
2019-03-09T16:24:47.658Z,93521.41
2019-03-09T16:27:15.989Z,93533.41
2019-03-09T16:29:44.748Z,93518.68
2019-03-09T16:32:13.556Z,93516.19
2019-03-09T16:34:41.642Z,93512.30
2019-03-09T16:37:09.506Z,93507.63
2019-03-09T16:39:38.272Z,93505.91
2019-03-09T16:42:06.578Z,93501.00
2019-03-09T16:44:35.393Z,93511.73
2019-03-09T16:47:03.568Z,93512.11
2019-03-09T16:49:32.243Z,93514.19
2019-03-09T16:51:59.907Z,93518.44
2019-03-09T16:54:28.212Z,93510.45
2019-03-09T16:56:56.491Z,93509.30
2019-03-09T16:59:24.767Z,93512.27
2019-03-09T17:01:53.044Z,93539.20
2019-03-09T17:04:33.588Z,93528.16
2019-03-09T17:07:02.230Z,93540.78
2019-03-09T17:09:30.276Z,93563.21
2019-03-09T17:11:58.306Z,93554.71
2019-03-09T17:14:26.638Z,93558.58
2019-03-09T17:16:54.619Z,93558.55
2019-03-09T17:19:23.177Z,93566.89
2019-03-09T17:21:52.040Z,93560.09
2019-03-09T17:24:20.640Z,93565.95
2019-03-09T17:26:49.343Z,93568.17
2019-03-09T17:29:18.123Z,93572.16
2019-03-09T17:31:46.961Z,93572.45
2019-03-09T17:34:15.272Z,93588.50
2019-03-09T17:36:43.634Z,93584.36
2019-03-09T17:39:11.745Z,93574.53
2019-03-09T17:41:40.480Z,93577.38
2019-03-09T17:44:07.998Z,93574.92
2019-03-09T17:46:36.344Z,93588.53
2019-03-09T17:49:04.635Z,93578.19
2019-03-09T17:51:32.803Z,93585.77
2019-03-09T17:54:00.900Z,93576.41
2019-03-09T17:56:28.979Z,93595.33
2019-03-09T17:58:57.665Z,93589.78
2019-03-09T18:01:25.942Z,93589.72
2019-03-09T18:03:54.004Z,93588.14
2019-03-09T18:06:22.387Z,93587.05
2019-03-09T18:08:50.804Z,93578.88
2019-03-09T18:11:19.158Z,93586.69
2019-03-09T18:13:47.551Z,93561.67
2019-03-09T18:16:15.860Z,93558.28
2019-03-09T18:18:44.640Z,93579.05
2019-03-09T18:21:12.947Z,93566.59
2019-03-09T18:23:41.392Z,93563.30
2019-03-09T18:26:10.168Z,93560.98
2019-03-09T18:28:38.535Z,93562.59
2019-03-09T18:31:07.270Z,93556.97
2019-03-09T18:33:36.518Z,93557.15
2019-03-09T18:36:04.544Z,93562.17
2019-03-09T18:38:33.157Z,93583.42
2019-03-09T18:41:01.357Z,93588.34
2019-03-09T18:43:30.062Z,93585.97
2019-03-09T18:45:58.368Z,93568.85
2019-03-09T18:48:26.783Z,93580.36
2019-03-09T18:50:55.474Z,93595.33
2019-03-09T18:53:23.461Z,93587.98
2019-03-09T18:55:58.937Z,93600.44
2019-03-09T18:58:22.137Z,93607.64
2019-03-09T19:00:50.437Z,93601.19
2019-03-09T19:03:19.148Z,93609.66
2019-03-09T19:05:47.642Z,93620.23
2019-03-09T19:08:16.099Z,93616.31
2019-03-09T19:10:44.115Z,93622.61
2019-03-09T19:13:12.929Z,93630.67
2019-03-09T19:15:40.967Z,93632.94
2019-03-09T19:18:09.933Z,93656.53
2019-03-09T19:20:38.638Z,93657.99
2019-03-09T19:23:07.255Z,93650.20
2019-03-09T19:25:35.538Z,93651.52
2019-03-09T19:28:03.079Z,93651.87
2019-03-09T19:30:31.724Z,93649.84
2019-03-09T19:33:00.761Z,93660.61
2019-03-09T19:35:39.557Z,93662.34
2019-03-09T19:38:07.932Z,93671.64
2019-03-09T19:40:35.843Z,93673.04
2019-03-09T19:43:03.906Z,93674.70
2019-03-09T19:45:32.629Z,93686.74
2019-03-09T19:48:01.453Z,93685.47
2019-03-09T19:50:29.702Z,93688.20
2019-03-09T19:52:59.321Z,93684.33
2019-03-09T19:55:27.787Z,93687.58
2019-03-09T19:57:56.208Z,93706.25
2019-03-09T20:00:24.923Z,93709.28
2019-03-09T20:02:53.715Z,93710.70
2019-03-09T20:05:22.045Z,93709.09
2019-03-09T20:07:50.748Z,93701.95
2019-03-09T20:10:19.129Z,93700.84
2019-03-09T20:12:47.408Z,93710.91
2019-03-09T20:15:15.778Z,93709.23
2019-03-09T20:17:45.866Z,93704.23
2019-03-09T20:20:21.147Z,93721.35
2019-03-09T20:22:49.932Z,93716.16
2019-03-09T20:25:30.417Z,93717.16
2019-03-09T20:27:59.085Z,93723.19
2019-03-09T20:30:27.066Z,93710.38
2019-03-09T20:32:55.877Z,93726.10
2019-03-09T20:35:24.222Z,93719.23
2019-03-09T20:37:52.639Z,93718.52
2019-03-09T20:40:21.413Z,93723.88
2019-03-09T20:42:50.004Z,93731.02
2019-03-09T20:45:18.759Z,93731.52
2019-03-09T20:47:47.086Z,93731.38
2019-03-09T20:50:15.171Z,93732.04
2019-03-09T20:52:43.256Z,93728.98
2019-03-09T20:55:51.928Z,93727.40
2019-03-09T20:58:20.644Z,93735.13
2019-03-09T21:00:48.607Z,93732.66
2019-03-09T21:03:17.409Z,93741.21
2019-03-09T21:05:45.636Z,93741.05
2019-03-09T21:08:13.979Z,93742.77
2019-03-09T21:10:42.796Z,93740.91
2019-03-09T21:13:11.382Z,93733.48
2019-03-09T21:15:39.413Z,93730.70
2019-03-09T21:18:07.736Z,93725.05
2019-03-09T21:20:36.523Z,93724.52
2019-03-09T21:23:05.203Z,93730.46
2019-03-09T21:25:33.122Z,93733.91
2019-03-09T21:28:01.888Z,93733.77
2019-03-09T21:30:30.578Z,93740.02
2019-03-09T21:32:59.420Z,93744.38
2019-03-09T21:35:27.729Z,93737.97
2019-03-09T21:37:56.160Z,93733.02
2019-03-09T21:40:23.743Z,93739.33
2019-03-09T21:42:52.688Z,93735.57
2019-03-09T21:45:21.458Z,93752.41
2019-03-09T21:47:49.876Z,93747.74
2019-03-09T21:50:18.593Z,93739.24
2019-03-09T21:52:46.526Z,93741.72
2019-03-09T21:55:14.510Z,93743.85
2019-03-09T21:57:42.955Z,93741.52
2019-03-09T22:00:12.498Z,93733.41
2019-03-09T22:02:40.878Z,93726.85
2019-03-09T22:05:11.075Z,93723.30
2019-03-09T22:07:39.920Z,93736.69
2019-03-09T22:10:08.557Z,93741.64
2019-03-09T22:12:36.918Z,93734.66
2019-03-09T22:15:05.444Z,93733.52
2019-03-09T22:17:33.736Z,93718.93
2019-03-09T22:20:02.519Z,93716.41
2019-03-09T22:22:31.134Z,93724.88
2019-03-09T22:24:59.505Z,93725.77
2019-03-09T22:27:28.104Z,93724.41
2019-03-09T22:29:56.898Z,93729.08
2019-03-09T22:32:25.263Z,93723.77
2019-03-09T22:34:53.224Z,93714.54
2019-03-09T22:37:21.808Z,93715.81
2019-03-09T22:39:50.120Z,93714.92
2019-03-09T22:42:17.711Z,93718.08
2019-03-09T22:44:46.089Z,93730.39
2019-03-09T22:47:14.835Z,93724.30
2019-03-09T22:49:42.769Z,93724.48
2019-03-09T22:52:10.733Z,93710.30
2019-03-09T22:54:38.584Z,93719.20
2019-03-09T22:57:06.870Z,93713.95
2019-03-09T22:59:35.603Z,93718.98
2019-03-09T23:04:44.581Z,93728.56
2019-03-09T23:07:12.853Z,93724.43
2019-03-09T23:09:41.065Z,93729.16
2019-03-09T23:12:09.046Z,93723.95
2019-03-09T23:14:37.729Z,93723.21
2019-03-09T23:17:06.542Z,93733.47
2019-03-09T23:19:34.812Z,93730.44
2019-03-09T23:22:03.366Z,93726.90
2019-03-09T23:24:31.674Z,93718.78
2019-03-09T23:30:01.025Z,93710.95
2019-03-09T23:32:28.967Z,93705.45
2019-03-09T23:34:57.771Z,93701.70
2019-03-09T23:37:25.024Z,93694.95
2019-03-09T23:39:53.403Z,93705.75
2019-03-09T23:42:21.680Z,93701.97
2019-03-09T23:44:50.544Z,93720.11
2019-03-09T23:47:18.458Z,93727.70
2019-03-09T23:49:46.360Z,93728.98
2019-03-09T23:52:14.822Z,93721.91
2019-03-09T23:54:43.426Z,93726.98
2019-03-09T23:57:11.299Z,93735.65
2019-03-09T23:59:39.611Z,93722.41
